sensor_id;sensor_type;location;lat;lon;timestamp;pressure;altitude;pressure_sealevel;temperature;humidity
49949;BME280;35840;45.982;8.890;2023-07-20T00:01:05;97795.59;;;24.92;64.42
49949;BME280;35840;45.982;8.890;2023-07-20T00:03:32;97796.84;;;24.55;64.95
49949;BME280;35840;45.982;8.890;2023-07-20T00:06:00;97799.38;;;24.70;64.56
49949;BME280;35840;45.982;8.890;2023-07-20T00:08:27;97797.66;;;24.14;64.02
49949;BME280;35840;45.982;8.890;2023-07-20T00:10:54;97797.00;;;24.40;63.81
49949;BME280;35840;45.982;8.890;2023-07-20T00:13:21;97797.50;;;24.22;63.56
49949;BME280;35840;45.982;8.890;2023-07-20T00:15:47;97800.38;;;24.34;63.12
49949;BME280;35840;45.982;8.890;2023-07-20T00:18:14;97808.94;;;24.08;63.10
49949;BME280;35840;45.982;8.890;2023-07-20T00:20:41;97806.38;;;24.21;64.20
49949;BME280;35840;45.982;8.890;2023-07-20T00:23:08;97807.16;;;23.86;64.26
49949;BME280;35840;45.982;8.890;2023-07-20T00:25:35;97802.81;;;23.94;64.13
49949;BME280;35840;45.982;8.890;2023-07-20T00:28:02;97804.22;;;23.68;64.59
49949;BME280;35840;45.982;8.890;2023-07-20T00:30:29;97800.56;;;23.91;64.62
49949;BME280;35840;45.982;8.890;2023-07-20T00:32:55;97803.75;;;24.14;63.23
49949;BME280;35840;45.982;8.890;2023-07-20T00:35:22;97794.00;;;23.80;64.56
49949;BME280;35840;45.982;8.890;2023-07-20T00:37:49;97817.69;;;24.15;63.70
49949;BME280;35840;45.982;8.890;2023-07-20T00:40:16;97813.72;;;23.47;62.75
49949;BME280;35840;45.982;8.890;2023-07-20T00:42:44;97819.19;;;23.09;63.88
49949;BME280;35840;45.982;8.890;2023-07-20T00:45:11;97816.75;;;23.08;65.37
49949;BME280;35840;45.982;8.890;2023-07-20T00:47:38;97823.91;;;23.57;63.44
49949;BME280;35840;45.982;8.890;2023-07-20T00:50:05;97822.97;;;23.43;62.85
49949;BME280;35840;45.982;8.890;2023-07-20T00:52:32;97825.19;;;23.18;64.05
49949;BME280;35840;45.982;8.890;2023-07-20T00:55:00;97822.41;;;23.26;63.34
49949;BME280;35840;45.982;8.890;2023-07-20T00:57:29;97834.97;;;23.52;62.32
49949;BME280;35840;45.982;8.890;2023-07-20T00:59:56;97825.28;;;23.31;61.92
49949;BME280;35840;45.982;8.890;2023-07-20T01:02:23;97840.16;;;23.24;62.19
49949;BME280;35840;45.982;8.890;2023-07-20T01:04:50;97835.19;;;23.29;61.59
49949;BME280;35840;45.982;8.890;2023-07-20T01:07:32;97842.41;;;23.49;60.83
49949;BME280;35840;45.982;8.890;2023-07-20T01:10:10;97846.97;;;23.18;63.14
49949;BME280;35840;45.982;8.890;2023-07-20T01:12:42;97835.94;;;23.45;63.02
49949;BME280;35840;45.982;8.890;2023-07-20T01:15:10;97852.25;;;22.89;66.18
49949;BME280;35840;45.982;8.890;2023-07-20T01:17:37;97848.84;;;22.88;66.92
49949;BME280;35840;45.982;8.890;2023-07-20T01:20:09;97850.34;;;22.97;66.62
49949;BME280;35840;45.982;8.890;2023-07-20T01:25:51;97855.47;;;23.64;64.39
49949;BME280;35840;45.982;8.890;2023-07-20T01:28:50;97849.97;;;23.15;65.03
49949;BME280;35840;45.982;8.890;2023-07-20T01:31:24;97849.22;;;23.43;63.42
49949;BME280;35840;45.982;8.890;2023-07-20T01:33:57;97852.69;;;23.72;62.61
49949;BME280;35840;45.982;8.890;2023-07-20T01:36:26;97834.13;;;23.95;62.59
49949;BME280;35840;45.982;8.890;2023-07-20T01:38:56;97852.41;;;24.10;62.46
49949;BME280;35840;45.982;8.890;2023-07-20T01:41:23;97859.13;;;23.91;63.08
49949;BME280;35840;45.982;8.890;2023-07-20T01:43:50;97860.50;;;23.65;62.74
49949;BME280;35840;45.982;8.890;2023-07-20T01:46:17;97871.56;;;23.82;62.46
49949;BME280;35840;45.982;8.890;2023-07-20T01:48:43;97854.63;;;23.85;62.47
49949;BME280;35840;45.982;8.890;2023-07-20T01:51:10;97844.41;;;23.97;62.36
49949;BME280;35840;45.982;8.890;2023-07-20T01:53:38;97873.38;;;24.03;61.89
49949;BME280;35840;45.982;8.890;2023-07-20T01:56:05;97870.53;;;24.05;60.54
49949;BME280;35840;45.982;8.890;2023-07-20T01:58:32;97870.28;;;24.00;62.23
49949;BME280;35840;45.982;8.890;2023-07-20T02:01:00;97860.31;;;23.88;64.07
49949;BME280;35840;45.982;8.890;2023-07-20T02:03:28;97867.63;;;23.71;64.82
49949;BME280;35840;45.982;8.890;2023-07-20T02:05:55;97873.06;;;23.48;66.04
49949;BME280;35840;45.982;8.890;2023-07-20T02:08:24;97878.56;;;23.32;62.94
49949;BME280;35840;45.982;8.890;2023-07-20T02:10:52;97885.50;;;23.40;62.78
49949;BME280;35840;45.982;8.890;2023-07-20T02:13:18;97886.47;;;23.53;62.89
49949;BME280;35840;45.982;8.890;2023-07-20T02:15:45;97874.63;;;23.64;61.96
49949;BME280;35840;45.982;8.890;2023-07-20T02:18:14;97882.88;;;23.61;61.45
49949;BME280;35840;45.982;8.890;2023-07-20T02:20:41;97874.09;;;23.69;61.56
49949;BME280;35840;45.982;8.890;2023-07-20T02:23:09;97877.81;;;23.81;62.44
49949;BME280;35840;45.982;8.890;2023-07-20T02:25:37;97870.88;;;23.73;63.29
49949;BME280;35840;45.982;8.890;2023-07-20T02:28:04;97877.38;;;23.34;65.05
49949;BME280;35840;45.982;8.890;2023-07-20T02:30:31;97890.06;;;23.31;63.17
49949;BME280;35840;45.982;8.890;2023-07-20T02:32:58;97881.63;;;23.35;62.70
49949;BME280;35840;45.982;8.890;2023-07-20T02:35:25;97884.38;;;23.49;62.70
49949;BME280;35840;45.982;8.890;2023-07-20T02:37:52;97888.16;;;23.25;64.09
49949;BME280;35840;45.982;8.890;2023-07-20T02:40:19;97892.94;;;22.99;64.43
49949;BME280;35840;45.982;8.890;2023-07-20T02:42:46;97897.16;;;23.00;63.09
49949;BME280;35840;45.982;8.890;2023-07-20T02:45:13;97897.38;;;22.69;63.27
49949;BME280;35840;45.982;8.890;2023-07-20T02:47:40;97898.13;;;22.63;64.17
49949;BME280;35840;45.982;8.890;2023-07-20T02:50:08;97901.78;;;22.83;64.09
49949;BME280;35840;45.982;8.890;2023-07-20T02:52:35;97894.41;;;22.72;64.05
49949;BME280;35840;45.982;8.890;2023-07-20T02:55:02;97896.72;;;22.97;62.81
49949;BME280;35840;45.982;8.890;2023-07-20T02:57:28;97893.59;;;22.72;62.87
49949;BME280;35840;45.982;8.890;2023-07-20T02:59:55;97903.00;;;22.36;63.84
49949;BME280;35840;45.982;8.890;2023-07-20T03:02:22;97897.63;;;22.29;64.23
49949;BME280;35840;45.982;8.890;2023-07-20T03:04:49;97900.59;;;22.26;64.88
49949;BME280;35840;45.982;8.890;2023-07-20T03:07:15;97908.22;;;22.51;64.08
49949;BME280;35840;45.982;8.890;2023-07-20T03:09:45;97910.84;;;22.36;65.05
49949;BME280;35840;45.982;8.890;2023-07-20T03:12:12;97910.31;;;22.56;64.59
49949;BME280;35840;45.982;8.890;2023-07-20T03:14:38;97911.59;;;22.60;63.59
49949;BME280;35840;45.982;8.890;2023-07-20T03:17:05;97914.28;;;22.51;64.13
49949;BME280;35840;45.982;8.890;2023-07-20T03:19:32;97919.34;;;22.68;63.84
49949;BME280;35840;45.982;8.890;2023-07-20T03:21:59;97910.13;;;22.57;63.61
49949;BME280;35840;45.982;8.890;2023-07-20T03:24:26;97922.41;;;22.57;64.20
49949;BME280;35840;45.982;8.890;2023-07-20T03:26:53;97910.66;;;22.67;64.21
49949;BME280;35840;45.982;8.890;2023-07-20T03:29:20;97922.06;;;22.75;63.80
49949;BME280;35840;45.982;8.890;2023-07-20T03:31:47;97918.44;;;22.61;64.43
49949;BME280;35840;45.982;8.890;2023-07-20T03:34:15;97925.78;;;22.65;64.83
49949;BME280;35840;45.982;8.890;2023-07-20T03:36:42;97927.38;;;22.66;64.74
49949;BME280;35840;45.982;8.890;2023-07-20T03:39:10;97918.34;;;22.69;64.03
49949;BME280;35840;45.982;8.890;2023-07-20T03:41:38;97932.72;;;22.73;63.98
49949;BME280;35840;45.982;8.890;2023-07-20T03:44:05;97927.22;;;22.53;64.44
49949;BME280;35840;45.982;8.890;2023-07-20T03:46:31;97931.91;;;22.19;66.28
49949;BME280;35840;45.982;8.890;2023-07-20T03:49:00;97933.72;;;22.19;65.72
49949;BME280;35840;45.982;8.890;2023-07-20T03:51:27;97918.91;;;21.73;66.76
49949;BME280;35840;45.982;8.890;2023-07-20T03:53:54;97938.00;;;21.97;66.26
49949;BME280;35840;45.982;8.890;2023-07-20T03:56:21;97933.25;;;22.15;65.61
49949;BME280;35840;45.982;8.890;2023-07-20T03:58:48;97937.22;;;22.11;65.56
49949;BME280;35840;45.982;8.890;2023-07-20T04:01:15;97938.22;;;22.48;65.04
49949;BME280;35840;45.982;8.890;2023-07-20T04:03:43;97939.94;;;22.41;65.41
49949;BME280;35840;45.982;8.890;2023-07-20T04:06:14;97941.69;;;22.26;65.75
49949;BME280;35840;45.982;8.890;2023-07-20T04:08:44;97939.13;;;22.41;64.62
49949;BME280;35840;45.982;8.890;2023-07-20T04:11:11;97933.88;;;22.41;63.76
49949;BME280;35840;45.982;8.890;2023-07-20T04:13:37;97937.63;;;22.00;65.02
49949;BME280;35840;45.982;8.890;2023-07-20T04:16:04;97932.78;;;21.74;65.86
49949;BME280;35840;45.982;8.890;2023-07-20T04:18:31;97941.50;;;21.89;65.68
49949;BME280;35840;45.982;8.890;2023-07-20T04:20:58;97940.50;;;21.67;66.22
49949;BME280;35840;45.982;8.890;2023-07-20T04:23:24;97944.31;;;21.88;65.75
49949;BME280;35840;45.982;8.890;2023-07-20T04:25:52;97947.97;;;22.16;65.37
49949;BME280;35840;45.982;8.890;2023-07-20T04:28:19;97949.59;;;22.41;64.87
49949;BME280;35840;45.982;8.890;2023-07-20T04:30:49;97958.34;;;22.10;64.43
49949;BME280;35840;45.982;8.890;2023-07-20T04:33:17;97957.34;;;22.34;63.82
49949;BME280;35840;45.982;8.890;2023-07-20T04:35:52;97956.66;;;22.55;63.41
49949;BME280;35840;45.982;8.890;2023-07-20T04:38:31;97960.00;;;22.64;63.70
49949;BME280;35840;45.982;8.890;2023-07-20T04:41:08;97958.38;;;22.78;63.40
49949;BME280;35840;45.982;8.890;2023-07-20T04:43:43;97952.25;;;22.56;63.60
49949;BME280;35840;45.982;8.890;2023-07-20T04:46:11;97958.94;;;22.73;63.56
49949;BME280;35840;45.982;8.890;2023-07-20T04:48:38;97950.31;;;22.49;64.80
49949;BME280;35840;45.982;8.890;2023-07-20T04:51:07;97966.06;;;22.79;64.86
49949;BME280;35840;45.982;8.890;2023-07-20T04:53:34;97956.28;;;22.58;66.17
49949;BME280;35840;45.982;8.890;2023-07-20T04:56:01;97957.03;;;22.67;65.88
49949;BME280;35840;45.982;8.890;2023-07-20T04:58:28;97956.22;;;22.51;67.26
49949;BME280;35840;45.982;8.890;2023-07-20T05:00:55;97955.66;;;22.41;66.57
49949;BME280;35840;45.982;8.890;2023-07-20T05:03:22;97949.34;;;22.35;65.68
49949;BME280;35840;45.982;8.890;2023-07-20T05:05:49;97958.44;;;22.01;67.12
49949;BME280;35840;45.982;8.890;2023-07-20T05:08:17;97958.94;;;22.20;66.67
49949;BME280;35840;45.982;8.890;2023-07-20T05:10:45;97958.44;;;22.40;66.24
49949;BME280;35840;45.982;8.890;2023-07-20T05:13:12;97960.28;;;22.31;65.67
49949;BME280;35840;45.982;8.890;2023-07-20T05:15:39;97953.31;;;22.46;65.71
49949;BME280;35840;45.982;8.890;2023-07-20T05:18:10;97941.00;;;22.47;67.12
49949;BME280;35840;45.982;8.890;2023-07-20T05:20:37;97962.72;;;22.85;67.13
49949;BME280;35840;45.982;8.890;2023-07-20T05:23:03;97959.00;;;22.65;69.52
49949;BME280;35840;45.982;8.890;2023-07-20T05:25:31;97961.19;;;22.91;68.90
49949;BME280;35840;45.982;8.890;2023-07-20T05:27:58;97959.84;;;22.95;67.38
49949;BME280;35840;45.982;8.890;2023-07-20T05:30:25;97957.72;;;22.61;68.42
49949;BME280;35840;45.982;8.890;2023-07-20T05:32:51;97957.66;;;22.54;67.32
49949;BME280;35840;45.982;8.890;2023-07-20T05:35:20;97958.00;;;22.96;66.43
49949;BME280;35840;45.982;8.890;2023-07-20T05:37:47;97959.84;;;22.65;67.32
49949;BME280;35840;45.982;8.890;2023-07-20T05:40:17;97952.94;;;22.34;68.99
49949;BME280;35840;45.982;8.890;2023-07-20T05:42:48;97957.56;;;22.47;69.09
49949;BME280;35840;45.982;8.890;2023-07-20T05:45:15;97961.16;;;22.46;68.70
49949;BME280;35840;45.982;8.890;2023-07-20T05:47:42;97957.28;;;22.42;68.66
49949;BME280;35840;45.982;8.890;2023-07-20T05:50:10;97956.38;;;22.65;68.66
49949;BME280;35840;45.982;8.890;2023-07-20T05:52:37;97953.16;;;22.63;67.87
49949;BME280;35840;45.982;8.890;2023-07-20T05:55:06;97953.84;;;22.86;69.95
49949;BME280;35840;45.982;8.890;2023-07-20T05:57:33;97960.34;;;22.91;69.11
49949;BME280;35840;45.982;8.890;2023-07-20T06:00:00;97968.97;;;22.99;66.35
49949;BME280;35840;45.982;8.890;2023-07-20T06:02:37;97963.81;;;22.91;66.92
49949;BME280;35840;45.982;8.890;2023-07-20T06:05:05;97960.53;;;22.89;67.74
49949;BME280;35840;45.982;8.890;2023-07-20T06:07:32;97961.19;;;22.91;65.65
49949;BME280;35840;45.982;8.890;2023-07-20T06:09:59;97955.41;;;22.96;63.62
49949;BME280;35840;45.982;8.890;2023-07-20T06:12:26;97958.00;;;22.96;64.03
49949;BME280;35840;45.982;8.890;2023-07-20T06:14:52;97953.94;;;23.23;63.36
49949;BME280;35840;45.982;8.890;2023-07-20T06:17:19;97959.66;;;23.48;63.46
49949;BME280;35840;45.982;8.890;2023-07-20T06:19:46;97951.31;;;23.60;62.22
49949;BME280;35840;45.982;8.890;2023-07-20T06:22:13;97953.06;;;23.52;62.96
49949;BME280;35840;45.982;8.890;2023-07-20T06:24:40;97954.81;;;23.67;62.67
49949;BME280;35840;45.982;8.890;2023-07-20T06:27:06;97945.06;;;23.82;62.73
49949;BME280;35840;45.982;8.890;2023-07-20T06:29:33;97945.97;;;23.89;63.72
49949;BME280;35840;45.982;8.890;2023-07-20T06:32:00;97947.88;;;24.02;63.79
49949;BME280;35840;45.982;8.890;2023-07-20T06:34:26;97948.06;;;24.01;65.31
49949;BME280;35840;45.982;8.890;2023-07-20T06:36:53;97947.41;;;23.92;66.17
49949;BME280;35840;45.982;8.890;2023-07-20T06:39:20;97938.81;;;23.83;66.17
49949;BME280;35840;45.982;8.890;2023-07-20T06:41:51;97945.88;;;23.83;65.55
49949;BME280;35840;45.982;8.890;2023-07-20T06:44:21;97942.75;;;23.94;65.78
49949;BME280;35840;45.982;8.890;2023-07-20T06:46:47;97941.38;;;23.98;65.14
49949;BME280;35840;45.982;8.890;2023-07-20T06:49:25;97947.00;;;24.17;65.29
49949;BME280;35840;45.982;8.890;2023-07-20T06:51:52;97937.13;;;24.19;67.30
49949;BME280;35840;45.982;8.890;2023-07-20T06:54:19;97935.75;;;24.01;66.47
49949;BME280;35840;45.982;8.890;2023-07-20T06:56:49;97933.97;;;24.02;66.04
49949;BME280;35840;45.982;8.890;2023-07-20T06:59:36;97939.81;;;24.26;66.17
49949;BME280;35840;45.982;8.890;2023-07-20T07:02:07;97939.88;;;24.39;65.52
49949;BME280;35840;45.982;8.890;2023-07-20T07:04:41;97928.06;;;24.28;66.60
49949;BME280;35840;45.982;8.890;2023-07-20T07:07:09;97928.59;;;24.45;67.64
49949;BME280;35840;45.982;8.890;2023-07-20T07:09:36;97928.06;;;24.56;67.30
49949;BME280;35840;45.982;8.890;2023-07-20T07:12:04;97926.53;;;24.69;67.61
49949;BME280;35840;45.982;8.890;2023-07-20T07:14:31;97921.31;;;24.75;66.35
49949;BME280;35840;45.982;8.890;2023-07-20T07:16:59;97920.13;;;24.85;65.23
49949;BME280;35840;45.982;8.890;2023-07-20T07:19:30;97916.56;;;24.92;64.73
49949;BME280;35840;45.982;8.890;2023-07-20T07:21:57;97916.94;;;24.89;63.63
49949;BME280;35840;45.982;8.890;2023-07-20T07:24:26;97912.28;;;24.91;62.57
49949;BME280;35840;45.982;8.890;2023-07-20T07:26:55;97923.41;;;24.87;62.11
49949;BME280;35840;45.982;8.890;2023-07-20T07:29:22;97920.56;;;24.88;59.98
49949;BME280;35840;45.982;8.890;2023-07-20T07:31:48;97914.03;;;24.78;58.91
49949;BME280;35840;45.982;8.890;2023-07-20T07:34:15;97928.91;;;24.99;59.00
49949;BME280;35840;45.982;8.890;2023-07-20T07:36:43;97928.31;;;25.03;57.91
49949;BME280;35840;45.982;8.890;2023-07-20T07:39:09;97920.06;;;25.13;58.15
49949;BME280;35840;45.982;8.890;2023-07-20T07:41:39;97923.75;;;25.25;57.18
49949;BME280;35840;45.982;8.890;2023-07-20T07:44:06;97915.03;;;25.18;57.70
49949;BME280;35840;45.982;8.890;2023-07-20T07:46:33;97912.16;;;25.13;57.66
49949;BME280;35840;45.982;8.890;2023-07-20T07:48:59;97918.69;;;25.24;57.03
49949;BME280;35840;45.982;8.890;2023-07-20T07:51:26;97914.38;;;25.16;54.98
49949;BME280;35840;45.982;8.890;2023-07-20T07:53:55;97908.94;;;25.11;54.68
49949;BME280;35840;45.982;8.890;2023-07-20T07:56:22;97902.44;;;25.07;53.59
49949;BME280;35840;45.982;8.890;2023-07-20T07:58:51;97915.81;;;25.19;52.48
49949;BME280;35840;45.982;8.890;2023-07-20T08:01:18;97911.38;;;25.19;54.51
49949;BME280;35840;45.982;8.890;2023-07-20T08:03:49;97915.41;;;25.22;53.20
49949;BME280;35840;45.982;8.890;2023-07-20T08:06:16;97903.28;;;25.21;52.25
49949;BME280;35840;45.982;8.890;2023-07-20T08:08:43;97913.63;;;25.22;51.44
49949;BME280;35840;45.982;8.890;2023-07-20T08:11:10;97916.03;;;25.17;54.01
49949;BME280;35840;45.982;8.890;2023-07-20T08:13:38;97916.44;;;25.27;52.31
49949;BME280;35840;45.982;8.890;2023-07-20T08:16:05;97914.00;;;25.26;52.60
49949;BME280;35840;45.982;8.890;2023-07-20T08:18:31;97917.63;;;25.05;48.65
49949;BME280;35840;45.982;8.890;2023-07-20T08:20:58;97920.44;;;25.10;51.78
49949;BME280;35840;45.982;8.890;2023-07-20T08:23:25;97924.69;;;25.04;52.13
49949;BME280;35840;45.982;8.890;2023-07-20T08:25:54;97921.09;;;25.19;53.26
49949;BME280;35840;45.982;8.890;2023-07-20T08:28:20;97926.34;;;25.19;49.63
49949;BME280;35840;45.982;8.890;2023-07-20T08:30:48;97926.81;;;25.29;48.83
49949;BME280;35840;45.982;8.890;2023-07-20T08:33:17;97926.22;;;25.34;49.13
49949;BME280;35840;45.982;8.890;2023-07-20T08:35:47;97925.66;;;25.45;50.00
49949;BME280;35840;45.982;8.890;2023-07-20T08:38:14;97925.06;;;25.56;49.62
49949;BME280;35840;45.982;8.890;2023-07-20T08:40:43;97927.28;;;25.59;48.98
49949;BME280;35840;45.982;8.890;2023-07-20T08:43:11;97915.38;;;25.70;50.53
49949;BME280;35840;45.982;8.890;2023-07-20T08:45:40;97913.94;;;25.68;46.85
49949;BME280;35840;45.982;8.890;2023-07-20T08:48:08;97918.19;;;25.75;49.77
49949;BME280;35840;45.982;8.890;2023-07-20T08:50:35;97920.84;;;25.82;51.18
49949;BME280;35840;45.982;8.890;2023-07-20T08:53:02;97923.25;;;25.84;50.55
49949;BME280;35840;45.982;8.890;2023-07-20T08:55:30;97909.31;;;25.83;49.03
49949;BME280;35840;45.982;8.890;2023-07-20T08:57:59;97912.75;;;25.90;49.78
49949;BME280;35840;45.982;8.890;2023-07-20T09:00:27;97919.22;;;25.94;50.48
49949;BME280;35840;45.982;8.890;2023-07-20T09:02:57;97916.22;;;26.04;48.72
49949;BME280;35840;45.982;8.890;2023-07-20T09:05:27;97907.91;;;26.01;48.68
49949;BME280;35840;45.982;8.890;2023-07-20T09:07:54;97916.00;;;26.06;43.84
49949;BME280;35840;45.982;8.890;2023-07-20T09:10:24;97907.06;;;26.07;45.27
49949;BME280;35840;45.982;8.890;2023-07-20T09:12:51;97915.19;;;26.19;48.52
49949;BME280;35840;45.982;8.890;2023-07-20T09:15:19;97907.50;;;26.10;44.00
49949;BME280;35840;45.982;8.890;2023-07-20T09:17:48;97901.59;;;26.15;47.40
49949;BME280;35840;45.982;8.890;2023-07-20T09:20:20;97899.19;;;26.14;46.48
49949;BME280;35840;45.982;8.890;2023-07-20T09:22:50;97890.06;;;26.16;47.11
49949;BME280;35840;45.982;8.890;2023-07-20T09:25:19;97899.56;;;26.37;49.76
49949;BME280;35840;45.982;8.890;2023-07-20T09:27:53;97898.72;;;26.50;51.23
49949;BME280;35840;45.982;8.890;2023-07-20T09:30:24;97890.97;;;26.62;48.43
49949;BME280;35840;45.982;8.890;2023-07-20T09:32:58;97898.09;;;26.55;47.80
49949;BME280;35840;45.982;8.890;2023-07-20T09:35:26;97886.16;;;26.39;43.46
49949;BME280;35840;45.982;8.890;2023-07-20T09:38:07;97885.94;;;26.47;44.32
49949;BME280;35840;45.982;8.890;2023-07-20T09:40:38;97880.44;;;26.55;44.25
49949;BME280;35840;45.982;8.890;2023-07-20T09:43:09;97878.63;;;26.49;42.06
49949;BME280;35840;45.982;8.890;2023-07-20T09:45:42;97883.69;;;26.57;41.86
49949;BME280;35840;45.982;8.890;2023-07-20T09:48:12;97879.19;;;26.64;44.98
49949;BME280;35840;45.982;8.890;2023-07-20T09:50:51;97878.78;;;26.74;43.44
49949;BME280;35840;45.982;8.890;2023-07-20T09:53:19;97879.81;;;26.67;46.39
49949;BME280;35840;45.982;8.890;2023-07-20T09:55:49;97883.44;;;26.79;44.05
49949;BME280;35840;45.982;8.890;2023-07-20T09:58:17;97876.66;;;26.96;48.78
49949;BME280;35840;45.982;8.890;2023-07-20T10:00:44;97877.38;;;27.10;49.42
49949;BME280;35840;45.982;8.890;2023-07-20T10:03:20;97877.88;;;27.01;46.30
49949;BME280;35840;45.982;8.890;2023-07-20T10:05:52;97881.28;;;27.08;47.85
49949;BME280;35840;45.982;8.890;2023-07-20T10:08:24;97872.69;;;27.19;48.48
49949;BME280;35840;45.982;8.890;2023-07-20T10:10:54;97866.16;;;27.22;50.32
49949;BME280;35840;45.982;8.890;2023-07-20T10:13:29;97865.69;;;27.31;50.41
49949;BME280;35840;45.982;8.890;2023-07-20T10:16:11;97857.19;;;27.29;47.76
49949;BME280;35840;45.982;8.890;2023-07-20T10:18:47;97850.81;;;27.44;48.93
49949;BME280;35840;45.982;8.890;2023-07-20T10:21:19;97855.19;;;27.57;48.08
49949;BME280;35840;45.982;8.890;2023-07-20T10:23:52;97855.94;;;27.64;48.81
49949;BME280;35840;45.982;8.890;2023-07-20T10:26:19;97855.16;;;27.63;44.97
49949;BME280;35840;45.982;8.890;2023-07-20T10:28:46;97846.78;;;27.66;46.52
49949;BME280;35840;45.982;8.890;2023-07-20T10:31:13;97843.28;;;27.73;49.38
49949;BME280;35840;45.982;8.890;2023-07-20T10:33:41;97838.88;;;27.66;47.39
49949;BME280;35840;45.982;8.890;2023-07-20T10:36:08;97837.63;;;27.69;45.18
49949;BME280;35840;45.982;8.890;2023-07-20T10:41:29;97824.88;;;27.66;46.86
49949;BME280;35840;45.982;8.890;2023-07-20T10:44:08;97828.69;;;27.70;43.39
49949;BME280;35840;45.982;8.890;2023-07-20T10:49:08;97830.31;;;27.90;44.81
49949;BME280;35840;45.982;8.890;2023-07-20T10:51:46;97829.16;;;28.11;46.16
49949;BME280;35840;45.982;8.890;2023-07-20T10:56:46;97828.84;;;28.19;42.76
49949;BME280;35840;45.982;8.890;2023-07-20T10:59:36;97819.75;;;28.33;41.78
49949;BME280;35840;45.982;8.890;2023-07-20T11:02:09;97820.84;;;28.44;42.75
49949;BME280;35840;45.982;8.890;2023-07-20T11:04:46;97824.69;;;28.48;43.79
49949;BME280;35840;45.982;8.890;2023-07-20T11:07:18;97811.94;;;28.57;44.87
49949;BME280;35840;45.982;8.890;2023-07-20T11:10:15;97812.53;;;28.59;44.43
49949;BME280;35840;45.982;8.890;2023-07-20T11:18:14;97806.66;;;28.57;46.76
49949;BME280;35840;45.982;8.890;2023-07-20T11:20:41;97803.88;;;28.71;44.35
49949;BME280;35840;45.982;8.890;2023-07-20T11:23:09;97803.69;;;28.84;40.69
49949;BME280;35840;45.982;8.890;2023-07-20T11:25:37;97804.66;;;28.90;39.35
49949;BME280;35840;45.982;8.890;2023-07-20T11:28:07;97805.22;;;28.92;41.39
49949;BME280;35840;45.982;8.890;2023-07-20T11:30:35;97798.56;;;28.89;42.51
49949;BME280;35840;45.982;8.890;2023-07-20T11:33:02;97780.03;;;28.89;42.75
49949;BME280;35840;45.982;8.890;2023-07-20T11:35:29;97803.19;;;29.06;43.14
49949;BME280;35840;45.982;8.890;2023-07-20T11:37:56;97802.72;;;29.09;42.79
49949;BME280;35840;45.982;8.890;2023-07-20T11:40:23;97798.50;;;29.08;40.97
49949;BME280;35840;45.982;8.890;2023-07-20T11:42:53;97797.56;;;29.14;41.19
49949;BME280;35840;45.982;8.890;2023-07-20T11:45:22;97794.22;;;29.07;39.96
49949;BME280;35840;45.982;8.890;2023-07-20T11:47:49;97782.34;;;28.97;42.95
49949;BME280;35840;45.982;8.890;2023-07-20T11:50:16;97770.69;;;28.87;41.61
49949;BME280;35840;45.982;8.890;2023-07-20T11:52:43;97780.13;;;28.94;41.85
49949;BME280;35840;45.982;8.890;2023-07-20T11:55:10;97779.47;;;28.99;43.28
49949;BME280;35840;45.982;8.890;2023-07-20T11:57:38;97771.75;;;28.97;42.99
49949;BME280;35840;45.982;8.890;2023-07-20T12:00:05;97768.91;;;29.11;43.28
49949;BME280;35840;45.982;8.890;2023-07-20T12:02:38;97771.44;;;29.17;40.81
49949;BME280;35840;45.982;8.890;2023-07-20T12:05:06;97772.19;;;29.25;42.28
49949;BME280;35840;45.982;8.890;2023-07-20T12:07:36;97773.53;;;29.15;42.20
49949;BME280;35840;45.982;8.890;2023-07-20T12:10:11;97774.69;;;29.19;42.10
49949;BME280;35840;45.982;8.890;2023-07-20T12:12:42;97765.97;;;29.31;41.96
49949;BME280;35840;45.982;8.890;2023-07-20T12:15:23;97771.75;;;29.40;40.93
49949;BME280;35840;45.982;8.890;2023-07-20T12:17:52;97754.00;;;29.40;40.37
49949;BME280;35840;45.982;8.890;2023-07-20T12:20:27;97749.16;;;29.37;42.40
49949;BME280;35840;45.982;8.890;2023-07-20T12:23:05;97751.94;;;29.30;41.54
49949;BME280;35840;45.982;8.890;2023-07-20T12:25:36;97745.31;;;29.21;44.27
49949;BME280;35840;45.982;8.890;2023-07-20T12:28:29;97747.28;;;29.14;42.71
49949;BME280;35840;45.982;8.890;2023-07-20T12:30:56;97745.31;;;29.21;42.20
49949;BME280;35840;45.982;8.890;2023-07-20T12:33:23;97728.56;;;29.27;43.94
49949;BME280;35840;45.982;8.890;2023-07-20T12:35:50;97736.75;;;29.49;42.28
49949;BME280;35840;45.982;8.890;2023-07-20T12:38:17;97742.16;;;29.54;41.42
49949;BME280;35840;45.982;8.890;2023-07-20T12:40:44;97733.72;;;29.46;41.28
49949;BME280;35840;45.982;8.890;2023-07-20T12:43:11;97727.88;;;29.44;41.07
49949;BME280;35840;45.982;8.890;2023-07-20T12:45:38;97730.50;;;29.56;41.51
49949;BME280;35840;45.982;8.890;2023-07-20T12:48:05;97722.44;;;29.62;42.64
49949;BME280;35840;45.982;8.890;2023-07-20T12:50:31;97717.94;;;29.63;41.94
49949;BME280;35840;45.982;8.890;2023-07-20T12:52:58;97719.09;;;29.67;41.92
49949;BME280;35840;45.982;8.890;2023-07-20T12:55:25;97720.03;;;29.61;42.82
49949;BME280;35840;45.982;8.890;2023-07-20T12:57:52;97720.72;;;29.68;41.99
49949;BME280;35840;45.982;8.890;2023-07-20T13:00:19;97704.25;;;29.54;41.06
49949;BME280;35840;45.982;8.890;2023-07-20T13:02:46;97720.03;;;29.61;41.52
49949;BME280;35840;45.982;8.890;2023-07-20T13:05:13;97713.94;;;29.60;41.45
49949;BME280;35840;45.982;8.890;2023-07-20T13:07:40;97715.44;;;29.56;42.62
49949;BME280;35840;45.982;8.890;2023-07-20T13:10:11;97711.28;;;29.60;41.37
49949;BME280;35840;45.982;8.890;2023-07-20T13:12:38;97712.44;;;29.64;42.97
49949;BME280;35840;45.982;8.890;2023-07-20T13:15:07;97708.25;;;29.68;41.24
49949;BME280;35840;45.982;8.890;2023-07-20T13:17:35;97705.06;;;29.66;39.92
49949;BME280;35840;45.982;8.890;2023-07-20T13:20:03;97708.84;;;29.70;41.94
49949;BME280;35840;45.982;8.890;2023-07-20T13:22:34;97703.78;;;29.69;41.29
49949;BME280;35840;45.982;8.890;2023-07-20T13:25:01;97704.59;;;29.69;41.43